Weather at Chinandega Germán Pomares Ordóñez Airport

Public forecast

Using degrees Celsius for public forecast. Weather courtesy of forecast.io.

Current aviation weather report (METAR) for Chinandega Germán Pomares Ordóñez Airport

2024/05/18 12:00 (retrieved 1 hour ago)

MNCH 181200Z 00000KT 6000 FEW024CB SCT025 26/26 Q1011 4AS080 CB/S/SE

Closest aviation forecast (TAF) to Chinandega Germán Pomares Ordóñez Airport

Closest forecast is Augusto C. Sandino (Managua) International Airport, 64.2 nm (119.0 km) ESE.

2024/05/18 12:09 (retrieved 53 minutes ago)

TAF MNMG 181110Z 1812/1912 13006KT 9999 FEW021 SCT070 BECMG 1814/1816 10012KT 9999 SCT020 TEMPO 1822/1904 6000 TSRA FEW020CB